x

South Moresby (46147) Wave Buoy

1:00pm - Tue 7th Jul 2015 All times are PDT. -7 hours from GMT.

  • Sig Wave height 4.6ft
  • Peak Period 8s
  • Wind
    2mph, 4mph gusts
  • Sea Temp 61°f
  • Air Temp 59°f
  • Sea Pressure 1018.2mb
  • South Moresby
  • South Moresby

More Historic Weather Station data

Upgrade to MSW Pro to gain access to the past 30 days of data for over 8000 Wavebouys and Weather Stations around the globe.

Join Pro

Comparision Forecast

View Surf forecast
   
Tue 07/07 1:00pm 4.5ft 8s 2 4 mph 1018.2mb 61f 59f
12:00pm 5ft 7s  -  2 mph 1018.4mb 60f 59f
11:00am 5ft 7s 4 7 mph 1018.5mb 60f 57f
10:00am 5ft 8s 9 11 mph 1018.2mb 60f 55f
9:00am 5ft 6s 9 11 mph 1017.8mb 59f 55f
8:00am 5ft 7s 11 13 mph 1017.7mb 59f 54f
6:00am 4.5ft 7s 18 20 mph 1017.2mb 59f 55f
5:00am 5ft 7s 13 16 mph 1017mb 58f 56f
4:00am 5ft 8s 16 18 mph 1017mb 58f 57f
3:00am 5.5ft 7s 18
mph
1017mb 58f 57f
2:00am 5.5ft 8s 16 18 mph 1016.9mb 58f 57f
1:00am 5.5ft 8s 16 18 mph 1016.9mb 58f 57f
12:00am 5ft 8s 16 20 mph 1016.9mb 58f 57f
Mon 07/06 11:00pm 5ft 8s 16 20 mph 1017mb 58f 57f
10:00pm 5.5ft 8s 18 20 mph 1016.8mb 59f 58f
9:00pm 6ft 8s 18 22 mph 1016.5mb 59f 58f
8:00pm 5.5ft 7s 18
mph
1016.4mb 59f 58f
7:00pm 6ft 8s 18 22 mph 1016.5mb 59f 58f
6:00pm 6ft 7s 18 20 mph 1016.8mb 59f 58f
5:00pm 6.5ft 8s 18 20 mph 1016.8mb 58f 58f
4:00pm 6.5ft 7s 18 20 mph 1016.5mb 58f 58f
3:00pm 7ft 7s 18 25 mph 1016.6mb 58f 58f
2:00pm 7ft 7s 18 20 mph 1016.7mb 58f 58f
1:00pm 7ft 7s 20 25 mph 1016.7mb 58f 58f
12:00pm 7ft 7s 18 25 mph 1016.8mb 59f 58f
11:00am 6.5ft 8s 20 25 mph 1016.2mb 57f 58f
10:00am 7ft 8s 18 22 mph 1016mb 58f 58f
9:00am 6.5ft 8s 18 22 mph 1015.7mb 58f 58f
8:00am 6.5ft 8s 20 22 mph 1015.6mb 58f 58f
7:00am 7ft 7s 22 27 mph 1015.1mb 58f 57f
6:00am 7ft 8s 22 27 mph 1015mb 58f 57f
5:00am 7.5ft 8s 25 31 mph 1014.9mb 57f 57f
4:00am 7ft 8s 22 27 mph 1015mb 57f 57f
3:00am 7ft 8s 22 29 mph 1015.2mb 57f 57f
2:00am 6.5ft 8s 20 25 mph 1015.2mb 57f 57f
1:00am 6.5ft 7s 18 20 mph 1015.5mb 58f 58f
12:00am 6.5ft 7s 20 22 mph 1015.4mb 58f 58f
Sun 07/05 11:00pm 6ft 7s 22 27 mph 1015.6mb 58f 58f
10:00pm 6ft 8s 20 25 mph 1015.6mb 58f 58f
9:00pm 6ft 7s 18 22 mph 1015.4mb 58f 58f
8:00pm 5.5ft 7s 18 20 mph 1015.7mb 58f 59f
7:00pm 6ft 7s 25 29 mph 1015.2mb 58f 59f
6:00pm 6ft 6s 25 29 mph 1015.3mb 57f 58f
5:00pm 6ft 6s 25 29 mph 1015.6mb 57f 58f
4:00pm 6ft 6s 20 25 mph 1016.3mb 56f 58f
3:00pm 6.5ft 6s 25 27 mph 1016.4mb 56f 58f
2:00pm 6.5ft 7s 22 27 mph 1016.8mb 56f 58f
1:00pm 7ft 7s 20 25 mph 1016.9mb 57f 58f
12:00pm 6.5ft 7s 20 25 mph 1017.1mb 57f 58f
11:00am 6.5ft 7s 20 25 mph 1017.4mb 58f 58f
10:00am 6.5ft 7s 20 22 mph 1017.5mb 58f 58f
9:00am 6ft 6s 16 20 mph 1017.6mb 58f 59f
8:00am 6ft 6s 16 18 mph 1017.5mb 58f 59f
6:00am  -   -  22
mph
1017.1mb - 58f
5:00am 6ft 6s 22 27 mph 1017mb 58f 58f
4:00am  -   -  22
mph
1017.1mb - 58f
3:00am 6ft 7s 22 27 mph 1017.4mb 57f 58f
2:00am 6ft 6s 20 27 mph 1018mb 57f 58f
1:00am 6ft 6s 20 25 mph 1018.4mb 57f 58f
12:00am 6ft 6s 25 29 mph 1018.6mb 57f 59f
Sat 07/04 11:00pm 6.5ft 6s 22 27 mph 1018.9mb 57f 59f
10:00pm 6.5ft 7s 25 29 mph 1019.1mb 58f 59f
9:00pm 5ft 7s 25 29 mph 1019.2mb 58f 59f
8:00pm 6ft 6s 25 27 mph 1019.3mb 58f 60f
7:00pm 5.5ft 7s 25 29 mph 1019.4mb 58f 59f
6:00pm 5.5ft 5s 25 27 mph 1019.8mb 58f 59f
5:00pm 5.5ft 6s 25 29 mph 1019.9mb 58f 59f
4:00pm 5.5ft 5s 22 29 mph 1020.2mb 57f 59f
3:00pm 5ft 6s 25 29 mph 1020.5mb 56f 59f
2:00pm 5.5ft 6s 20 27 mph 1020.8mb 58f 59f
1:00pm 5ft 7s 22 27 mph 1021.5mb 58f 59f
12:00pm 5ft 6s 18 22 mph 1021.5mb 58f 59f
11:00am 5ft 6s 18 22 mph 1022mb 57f 59f
10:00am 4.5ft 5s 20 25 mph 1022.2mb 57f 59f
9:00am 4ft 6s 20 25 mph 1022.4mb 59f 59f
7:00am 3.5ft 7s 16 18 mph 1022mb 59f 59f
6:00am 3.5ft 6s 9 13 mph 1021.7mb 59f 59f
5:00am 3.5ft 7s 7
mph
1021.6mb 59f 59f
4:00am 3.5ft 7s 7 9 mph 1021.5mb 59f 59f
3:00am 3.5ft 15s 13
mph
1021.5mb 59f 59f
2:00am 3.5ft 7s 13 16 mph 1021.7mb 59f 59f
1:00am 3.5ft 7s 13 16 mph 1021.8mb 58f 58f
12:00am 3.5ft 7s 13 18 mph 1022mb 58f 58f
Fri 07/03 11:00pm 3.5ft 8s 13 18 mph 1022.1mb 58f 59f
10:00pm 4ft 8s 16 20 mph 1022.2mb 58f 59f